createdAt,value
2023-02-15T00:02:16.962Z,98832.66
2023-02-15T00:04:58.978Z,98843.50
2023-02-15T00:07:47.841Z,98845.97
2023-02-15T00:10:36.643Z,98847.66
2023-02-15T00:13:25.798Z,98836.22
2023-02-15T00:16:17.115Z,98824.13
2023-02-15T00:19:01.835Z,98834.75
2023-02-15T00:21:44.006Z,98835.78
2023-02-15T00:24:34.787Z,98834.81
2023-02-15T00:27:23.836Z,98829.88
2023-02-15T00:30:06.105Z,98827.84
2023-02-15T00:32:56.798Z,98831.56
2023-02-15T00:35:39.054Z,98824.59
2023-02-15T00:38:27.818Z,98837.50
2023-02-15T00:41:12.114Z,98838.13
2023-02-15T00:44:00.785Z,98844.44
2023-02-15T00:46:44.161Z,98847.34
2023-02-15T00:49:32.796Z,98854.06
2023-02-15T00:52:15.077Z,98847.72
2023-02-15T00:55:04.901Z,98837.31
2023-02-15T00:57:47.048Z,98837.31
2023-02-15T01:00:35.792Z,98848.75
2023-02-15T01:03:24.775Z,98851.22
2023-02-15T01:06:07.337Z,98866.38
2023-02-15T01:08:55.818Z,98860.22
2023-02-15T01:11:45.089Z,98866.78
2023-02-15T01:14:27.440Z,98870.84
2023-02-15T01:17:15.022Z,98876.19
2023-02-15T01:19:57.825Z,98877.56
2023-02-15T01:22:40.193Z,98877.81
2023-02-15T01:25:28.750Z,98889.03
2023-02-15T01:28:18.026Z,98877.97
2023-02-15T01:31:00.896Z,98898.84
2023-02-15T01:33:50.014Z,98906.81
2023-02-15T01:36:32.797Z,98905.41
2023-02-15T01:39:21.770Z,98901.31
2023-02-15T01:42:05.055Z,98914.19
2023-02-15T01:45:07.743Z,98911.59
2023-02-15T01:47:57.085Z,98910.13
2023-02-15T01:50:49.738Z,98910.16
2023-02-15T01:56:47.811Z,98898.88
2023-02-15T01:59:32.179Z,98898.69
2023-02-15T02:02:23.838Z,98899.50
2023-02-15T02:05:14.331Z,98897.44
2023-02-15T02:08:06.839Z,98904.81
2023-02-15T02:10:49.037Z,98900.53
2023-02-15T02:13:37.765Z,98911.97
2023-02-15T02:16:35.725Z,98920.34
2023-02-15T02:19:49.160Z,98918.88
2023-02-15T02:22:55.756Z,98921.94
2023-02-15T02:26:09.128Z,98930.09
2023-02-15T02:29:34.788Z,98928.63
2023-02-15T02:32:16.956Z,98926.34
2023-02-15T02:35:23.745Z,98931.28
2023-02-15T02:38:37.752Z,98943.34
2023-02-15T02:41:26.048Z,98945.34
2023-02-15T02:44:27.807Z,98944.66
2023-02-15T02:47:39.052Z,98958.22
2023-02-15T02:50:34.754Z,98940.59
2023-02-15T02:53:25.777Z,98955.00
2023-02-15T02:56:41.799Z,98948.59
2023-02-15T02:59:39.827Z,98949.41
2023-02-15T03:02:38.843Z,98952.78
2023-02-15T03:05:34.710Z,98964.34
2023-02-15T03:08:23.873Z,98964.25
2023-02-15T03:11:15.760Z,98965.81
2023-02-15T03:14:07.054Z,98974.16
2023-02-15T03:16:51.822Z,98987.94
2023-02-15T03:19:38.862Z,98998.28
2023-02-15T03:22:35.759Z,99006.16
2023-02-15T03:25:35.084Z,99011.50
2023-02-15T03:28:30.713Z,98997.03
2023-02-15T03:31:23.869Z,99002.31
2023-02-15T03:34:15.004Z,99006.00
2023-02-15T03:37:22.738Z,99003.69
2023-02-15T03:40:36.761Z,99008.41
2023-02-15T03:44:01.800Z,99015.28
2023-02-15T03:47:00.848Z,99022.69
2023-02-15T03:49:58.106Z,99017.53
2023-02-15T03:52:46.838Z,99017.25
2023-02-15T03:55:29.026Z,99023.03
2023-02-15T03:58:35.776Z,99031.03
2023-02-15T04:01:59.159Z,99033.84
2023-02-15T04:04:55.732Z,99042.88
2023-02-15T04:07:38.105Z,99039.19
2023-02-15T04:10:44.761Z,99035.41
2023-02-15T04:13:53.831Z,99043.16
2023-02-15T04:16:42.110Z,99045.50
2023-02-15T04:19:42.739Z,99047.53
2023-02-15T04:22:49.757Z,99048.38
2023-02-15T04:25:32.229Z,99050.28
2023-02-15T04:28:20.759Z,99050.81
2023-02-15T04:31:09.784Z,99051.19
2023-02-15T04:33:51.922Z,99049.72
2023-02-15T04:36:40.708Z,99047.06
2023-02-15T04:39:22.985Z,99041.47
2023-02-15T04:42:11.762Z,99042.69
2023-02-15T04:45:07.551Z,99049.22
2023-02-15T04:47:56.801Z,99039.94
2023-02-15T04:50:39.026Z,99038.00
2023-02-15T04:53:27.798Z,99044.22
2023-02-15T04:56:10.085Z,99048.28
2023-02-15T04:58:58.795Z,99047.28
2023-02-15T05:01:41.002Z,99043.50
2023-02-15T05:04:29.813Z,99039.97
2023-02-15T05:07:18.741Z,99037.22
2023-02-15T05:10:00.999Z,99031.78
2023-02-15T05:12:49.819Z,99025.94
2023-02-15T05:15:39.052Z,99030.69
2023-02-15T05:18:20.705Z,99034.69
2023-02-15T05:21:08.975Z,99031.16
2023-02-15T05:23:51.735Z,99044.94
2023-02-15T05:26:59.707Z,99040.59
2023-02-15T05:29:41.800Z,99049.22
2023-02-15T05:32:24.231Z,99045.44
2023-02-15T05:35:12.714Z,99055.25
2023-02-15T05:37:55.202Z,99053.41
2023-02-15T05:40:43.783Z,99055.00
2023-02-15T05:43:40.737Z,99047.44
2023-02-15T05:46:30.320Z,99055.19
2023-02-15T05:49:12.754Z,99050.44
2023-02-15T05:51:55.259Z,99046.50
2023-02-15T05:54:43.759Z,99041.81
2023-02-15T05:57:32.042Z,99033.72
2023-02-15T06:00:14.870Z,99035.34
2023-02-15T06:03:03.104Z,99039.19
2023-02-15T06:05:45.831Z,99040.47
2023-02-15T06:08:34.112Z,99036.84
2023-02-15T06:11:16.786Z,99042.91
2023-02-15T06:14:05.489Z,99028.47
2023-02-15T06:16:48.783Z,99023.75
2023-02-15T06:19:37.041Z,99020.63
2023-02-15T06:22:19.709Z,99003.81
2023-02-15T06:25:08.051Z,98996.00
2023-02-15T06:27:51.758Z,98996.28
2023-02-15T06:30:41.115Z,98996.19
2023-02-15T06:33:22.842Z,98995.81
2023-02-15T06:36:12.013Z,98989.00
2023-02-15T06:38:53.834Z,98992.50
2023-02-15T06:41:41.989Z,98995.56
2023-02-15T06:44:36.795Z,98991.94
2023-02-15T06:47:26.155Z,98995.81
2023-02-15T06:50:07.782Z,98985.09
2023-02-15T06:52:56.041Z,98981.56
2023-02-15T06:55:38.723Z,98971.28
2023-02-15T06:58:28.216Z,98981.41
2023-02-15T07:01:11.172Z,98972.31
2023-02-15T07:03:59.118Z,98967.06
2023-02-15T07:06:42.860Z,98958.94
2023-02-15T07:09:32.100Z,98951.13
2023-02-15T07:12:33.789Z,98946.06
2023-02-15T07:15:29.779Z,98950.75
2023-02-15T07:18:12.779Z,98951.50
2023-02-15T07:21:01.680Z,98939.53
2023-02-15T07:23:46.071Z,98935.44
2023-02-15T07:26:35.693Z,98936.94
2023-02-15T07:29:18.279Z,98922.72
2023-02-15T07:32:06.748Z,98920.13
2023-02-15T07:34:50.153Z,98914.78
2023-02-15T07:37:38.684Z,98909.75
2023-02-15T07:40:21.187Z,98901.59
2023-02-15T07:43:09.800Z,98894.84
2023-02-15T07:45:58.064Z,98895.94
2023-02-15T07:48:41.816Z,98892.97
2023-02-15T07:51:30.204Z,98887.78
2023-02-15T07:54:12.779Z,98874.00
2023-02-15T07:57:02.184Z,98861.22
2023-02-15T07:59:43.706Z,98863.31
2023-02-15T08:02:32.341Z,98844.63
2023-02-15T08:05:14.768Z,98854.78
2023-02-15T08:07:56.943Z,98848.56
2023-02-15T08:11:04.806Z,98850.88
2023-02-15T08:13:58.323Z,98830.31
2023-02-15T08:16:51.163Z,98833.25
2023-02-15T08:19:41.156Z,98842.72
2023-02-15T08:22:23.698Z,98838.75
2023-02-15T08:25:13.197Z,98841.03
2023-02-15T08:27:54.773Z,98841.28
2023-02-15T08:30:43.118Z,98839.31
2023-02-15T08:33:26.806Z,98839.47
2023-02-15T08:36:19.211Z,98822.03
2023-02-15T08:39:01.769Z,98817.19
2023-02-15T08:41:55.168Z,98810.44
2023-02-15T08:44:50.465Z,98811.47
2023-02-15T08:47:39.027Z,98805.66
2023-02-15T08:50:21.796Z,98797.66
2023-02-15T08:53:12.816Z,98785.22
2023-02-15T08:55:55.820Z,98776.94
2023-02-15T08:58:45.176Z,98787.00
2023-02-15T09:01:29.809Z,98783.19
2023-02-15T09:04:19.046Z,98769.47
2023-02-15T09:07:01.732Z,98770.00
2023-02-15T09:09:50.020Z,98761.59
2023-02-15T09:12:31.741Z,98760.66
2023-02-15T09:15:20.142Z,98757.19
2023-02-15T09:18:02.746Z,98750.22
2023-02-15T09:20:53.458Z,98747.00
2023-02-15T09:23:37.088Z,98757.66
2023-02-15T09:26:31.030Z,98745.97
2023-02-15T09:29:12.855Z,98746.63
2023-02-15T09:31:55.680Z,98742.97
2023-02-15T09:34:44.700Z,98742.25
2023-02-15T09:37:33.858Z,98738.38
2023-02-15T09:40:16.760Z,98732.94
2023-02-15T09:43:19.340Z,98735.72
2023-02-15T09:46:49.769Z,98727.41
2023-02-15T09:50:21.983Z,98720.91
2023-02-15T09:53:06.768Z,98725.00
2023-02-15T09:56:07.089Z,98730.50
2023-02-15T09:58:57.795Z,98729.00
2023-02-15T10:01:54.004Z,98727.91
2023-02-15T10:04:38.906Z,98736.81
2023-02-15T10:07:50.013Z,98722.16
2023-02-15T10:10:44.735Z,98722.59
2023-02-15T10:13:48.106Z,98723.13
2023-02-15T10:17:00.855Z,98719.38
2023-02-15T10:20:07.560Z,98718.84
2023-02-15T10:23:01.782Z,98727.31
2023-02-15T10:26:15.913Z,98737.94
2023-02-15T10:28:57.823Z,98726.63
2023-02-15T10:31:56.210Z,98725.00
2023-02-15T10:34:48.804Z,98724.78
2023-02-15T10:37:50.145Z,98721.38
2023-02-15T10:40:46.684Z,98724.38
2023-02-15T10:43:53.804Z,98718.91
2023-02-15T10:47:27.752Z,98718.41
2023-02-15T10:50:52.776Z,98723.16
2023-02-15T10:53:53.021Z,98712.63
2023-02-15T10:56:56.772Z,98722.44
2023-02-15T10:59:50.180Z,98712.44
2023-02-15T11:02:50.784Z,98722.59
2023-02-15T11:06:02.028Z,98714.50
2023-02-15T11:09:04.702Z,98719.81
2023-02-15T11:11:49.064Z,98719.56
2023-02-15T11:15:12.762Z,98721.72
2023-02-15T11:18:05.110Z,98724.78
2023-02-15T11:21:18.717Z,98720.16
2023-02-15T11:24:01.038Z,98717.16
2023-02-15T11:27:13.782Z,98716.13
2023-02-15T11:30:20.353Z,98721.63
2023-02-15T11:33:13.826Z,98722.50
2023-02-15T11:36:08.016Z,98712.25
2023-02-15T11:39:01.698Z,98720.63
2023-02-15T11:41:53.231Z,98713.03
2023-02-15T11:44:51.148Z,98716.56
2023-02-15T11:47:32.980Z,98710.94
2023-02-15T11:50:30.723Z,98710.47
2023-02-15T11:53:32.258Z,98721.84
2023-02-15T11:56:25.862Z,98722.44
2023-02-15T11:59:19.959Z,98721.41
2023-02-15T12:02:08.690Z,98717.34
2023-02-15T12:04:56.073Z,98715.22
2023-02-15T12:08:12.743Z,98712.28
2023-02-15T12:11:33.963Z,98710.13
2023-02-15T12:14:26.233Z,98715.03
2023-02-15T12:17:09.245Z,98709.91
2023-02-15T12:20:00.728Z,98715.06
2023-02-15T12:22:52.737Z,98718.59
2023-02-15T12:25:46.009Z,98721.31
2023-02-15T12:28:47.872Z,98727.53
2023-02-15T12:31:51.143Z,98737.25
2023-02-15T12:34:35.667Z,98734.25
2023-02-15T12:37:32.773Z,98735.31
2023-02-15T12:40:34.179Z,98731.53
2023-02-15T12:43:46.805Z,98733.13
2023-02-15T12:46:38.903Z,98736.13
2023-02-15T12:49:29.782Z,98743.66
2023-02-15T12:52:22.135Z,98739.03
2023-02-15T12:55:10.753Z,98739.53
2023-02-15T12:58:27.221Z,98732.19
2023-02-15T13:01:19.795Z,98728.91
2023-02-15T13:04:14.003Z,98728.34
2023-02-15T13:07:00.727Z,98729.97
2023-02-15T13:09:43.212Z,98735.63
2023-02-15T13:12:38.731Z,98734.78
2023-02-15T13:15:45.853Z,98734.75
2023-02-15T13:18:42.227Z,98734.97
2023-02-15T13:21:40.697Z,98737.28
2023-02-15T13:24:42.227Z,98737.41
2023-02-15T13:27:36.821Z,98738.19
2023-02-15T13:30:43.705Z,98742.44
2023-02-15T13:33:36.822Z,98752.63
2023-02-15T13:36:28.061Z,98747.72
2023-02-15T13:39:39.684Z,98738.75
2023-02-15T13:42:50.167Z,98748.50
2023-02-15T13:45:48.731Z,98753.50
2023-02-15T13:48:57.986Z,98745.56
2023-02-15T13:52:02.792Z,98742.75
2023-02-15T13:54:54.183Z,98748.81
2023-02-15T13:57:47.827Z,98747.47
2023-02-15T14:00:46.254Z,98758.69
2023-02-15T14:04:02.864Z,98763.47
2023-02-15T14:07:12.089Z,98776.44
2023-02-15T14:10:03.695Z,98775.53
2023-02-15T14:13:17.238Z,98778.22
2023-02-15T14:16:12.846Z,98791.28
2023-02-15T14:19:18.060Z,98791.69
2023-02-15T14:22:16.796Z,98792.19
2023-02-15T14:25:23.709Z,98782.47
2023-02-15T14:28:28.919Z,98791.56
2023-02-15T14:31:21.857Z,98793.44
2023-02-15T14:34:08.588Z,98796.63
2023-02-15T14:37:00.723Z,98788.00
2023-02-15T14:40:10.650Z,98786.28
2023-02-15T14:43:37.768Z,98788.34
2023-02-15T14:47:02.021Z,98785.34
2023-02-15T14:49:48.771Z,98800.06
2023-02-15T14:52:38.106Z,98809.59
2023-02-15T14:55:46.727Z,98815.44
2023-02-15T14:58:29.042Z,98819.59
2023-02-15T15:01:26.808Z,98822.28
2023-02-15T15:04:22.036Z,98834.28
2023-02-15T15:07:09.082Z,98840.06
2023-02-15T15:10:32.197Z,98836.75
2023-02-15T15:13:44.795Z,98842.94
2023-02-15T15:16:32.320Z,98840.78
2023-02-15T15:19:25.756Z,98846.66
2023-02-15T15:22:13.981Z,98844.69
2023-02-15T15:25:02.736Z,98838.41
2023-02-15T15:27:56.110Z,98836.81
2023-02-15T15:30:48.838Z,98844.28
2023-02-15T15:34:12.437Z,98845.22
2023-02-15T15:37:30.792Z,98848.06
2023-02-15T15:40:41.388Z,98852.25
2023-02-15T15:43:49.873Z,98850.53
2023-02-15T15:46:44.072Z,98865.25
2023-02-15T15:49:27.662Z,98866.19
2023-02-15T15:52:28.131Z,98874.94
2023-02-15T15:55:23.698Z,98870.50
2023-02-15T15:58:09.470Z,98875.78
2023-02-15T16:01:04.755Z,98880.09
2023-02-15T16:04:02.121Z,98877.66
2023-02-15T16:06:46.677Z,98872.19
2023-02-15T16:09:37.066Z,98896.53
2023-02-15T16:12:26.838Z,98899.47
2023-02-15T16:15:33.084Z,98898.22
2023-02-15T16:18:15.729Z,98881.53
2023-02-15T16:21:10.046Z,98890.16
2023-02-15T16:24:03.746Z,98902.16
2023-02-15T16:27:00.700Z,98908.91
2023-02-15T16:29:49.788Z,98906.94
2023-02-15T16:32:40.902Z,98917.66
2023-02-15T16:35:28.168Z,98923.28
2023-02-15T16:38:20.885Z,98922.00
2023-02-15T16:41:06.130Z,98908.81
2023-02-15T16:43:57.723Z,98911.16
2023-02-15T16:46:57.647Z,98918.59
2023-02-15T16:49:47.805Z,98913.00
2023-02-15T16:52:34.141Z,98933.41
2023-02-15T16:55:37.913Z,98940.84
2023-02-15T16:58:26.235Z,98932.69
2023-02-15T17:01:17.781Z,98938.84
2023-02-15T17:04:19.039Z,98939.41
2023-02-15T17:07:14.745Z,98945.00
2023-02-15T17:10:04.960Z,98930.88
2023-02-15T17:13:06.711Z,98933.00
2023-02-15T17:16:13.114Z,98923.94
2023-02-15T17:19:02.743Z,98934.38
2023-02-15T17:21:52.245Z,98936.72
2023-02-15T17:24:45.710Z,98942.75
2023-02-15T17:27:31.200Z,98951.00
2023-02-15T17:30:29.805Z,98961.38
2023-02-15T17:33:12.985Z,98943.31
2023-02-15T17:36:20.768Z,98929.94
2023-02-15T17:39:06.062Z,98935.16
2023-02-15T17:41:55.657Z,98938.91
2023-02-15T17:44:37.998Z,98945.16
2023-02-15T17:47:38.921Z,98946.44
2023-02-15T17:50:34.023Z,98940.50
2023-02-15T17:53:17.767Z,98936.78
2023-02-15T17:56:00.088Z,98929.44
2023-02-15T17:58:49.860Z,98934.28
2023-02-15T18:01:57.392Z,98928.13
2023-02-15T18:05:02.746Z,98931.69
2023-02-15T18:08:03.240Z,98927.84
2023-02-15T18:11:09.769Z,98935.06
2023-02-15T18:14:02.483Z,98936.56
2023-02-15T18:16:50.801Z,98927.34
2023-02-15T18:19:48.184Z,98934.91
2023-02-15T18:22:31.145Z,98939.38
2023-02-15T18:25:22.038Z,98943.84
2023-02-15T18:28:10.711Z,98944.75
2023-02-15T18:30:59.762Z,98948.78
2023-02-15T18:33:46.180Z,98947.75
2023-02-15T18:36:41.759Z,98950.44
2023-02-15T18:39:36.143Z,98946.84
2023-02-15T18:42:36.753Z,98946.38
2023-02-15T18:45:44.748Z,98931.72
2023-02-15T18:48:33.014Z,98922.53
2023-02-15T18:51:25.676Z,98920.69
2023-02-15T18:54:18.370Z,98933.47
2023-02-15T18:57:12.712Z,98936.16
2023-02-15T19:00:02.246Z,98936.56
2023-02-15T19:02:44.843Z,98939.50
2023-02-15T19:05:29.403Z,98935.63
2023-02-15T19:08:19.826Z,98944.03
2023-02-15T19:11:08.979Z,98941.81
2023-02-15T19:13:51.781Z,98937.50
2023-02-15T19:16:43.061Z,98940.38
2023-02-15T19:19:25.736Z,98935.25
2023-02-15T19:22:18.022Z,98928.88
2023-02-15T19:25:02.146Z,98928.50
2023-02-15T19:27:50.129Z,98921.31
2023-02-15T19:30:40.057Z,98924.56
2023-02-15T19:33:29.086Z,98915.75
2023-02-15T19:36:11.902Z,98916.16
2023-02-15T19:39:02.006Z,98924.44
2023-02-15T19:41:44.737Z,98930.00
2023-02-15T19:44:32.982Z,98929.78
2023-02-15T19:47:21.627Z,98939.25
2023-02-15T19:50:04.957Z,98932.97
2023-02-15T19:52:54.710Z,98932.59
2023-02-15T19:55:40.042Z,98929.94
2023-02-15T19:58:29.739Z,98927.84
2023-02-15T20:01:12.230Z,98934.72
2023-02-15T20:04:00.723Z,98948.19
2023-02-15T20:06:43.017Z,98932.81
2023-02-15T20:09:34.766Z,98939.41
2023-02-15T20:12:33.034Z,98943.56
2023-02-15T20:15:34.786Z,98953.69
2023-02-15T20:18:19.246Z,98955.16
2023-02-15T20:21:10.669Z,98945.94
2023-02-15T20:23:52.977Z,98953.06
2023-02-15T20:26:41.840Z,98949.00
2023-02-15T20:29:25.979Z,98954.53
2023-02-15T20:32:14.761Z,98955.97
2023-02-15T20:34:57.001Z,98961.53
2023-02-15T20:37:45.750Z,98953.16
2023-02-15T20:40:32.114Z,98947.66
2023-02-15T20:43:23.694Z,98946.16
2023-02-15T20:46:13.012Z,98934.44
2023-02-15T20:48:55.688Z,98927.31
2023-02-15T20:51:45.583Z,98935.78
2023-02-15T20:54:31.708Z,98925.97
2023-02-15T20:57:20.908Z,98923.75
2023-02-15T21:00:03.812Z,98924.97
2023-02-15T21:03:01.979Z,98920.75
2023-02-15T21:05:43.695Z,98920.75
2023-02-15T21:08:34.198Z,98919.56
2023-02-15T21:11:28.818Z,98917.34
2023-02-15T21:14:28.135Z,98912.19
2023-02-15T21:17:10.646Z,98911.00
2023-02-15T21:20:05.666Z,98905.50
2023-02-15T21:22:55.010Z,98911.88
2023-02-15T21:25:45.661Z,98903.69
2023-02-15T21:28:36.021Z,98896.47
2023-02-15T21:31:26.801Z,98901.03
2023-02-15T21:34:15.063Z,98902.47
2023-02-15T21:36:58.664Z,98905.59
2023-02-15T21:39:47.697Z,98903.94
2023-02-15T21:42:48.474Z,98905.00
2023-02-15T21:45:55.734Z,98902.75
2023-02-15T21:48:38.025Z,98898.69
2023-02-15T21:51:46.561Z,98897.88
2023-02-15T21:54:35.644Z,98892.16
2023-02-15T21:57:21.085Z,98901.81
2023-02-15T22:00:10.717Z,98887.63
2023-02-15T22:03:04.947Z,98890.50
2023-02-15T22:05:47.633Z,98889.47
2023-02-15T22:08:36.718Z,98891.78
2023-02-15T22:11:24.948Z,98890.97
2023-02-15T22:14:13.603Z,98888.69
2023-02-15T22:16:55.951Z,98883.59
2023-02-15T22:19:44.663Z,98890.19
2023-02-15T22:22:27.254Z,98883.19
2023-02-15T22:25:15.718Z,98887.75
2023-02-15T22:27:59.905Z,98881.59
2023-02-15T22:30:48.654Z,98884.47
2023-02-15T22:33:48.642Z,98883.63
2023-02-15T22:36:38.933Z,98880.75
2023-02-15T22:39:20.709Z,98873.78
2023-02-15T22:42:02.886Z,98874.22
2023-02-15T22:44:51.649Z,98880.38
2023-02-15T22:47:37.094Z,98878.75
2023-02-15T22:50:41.726Z,98873.41
2023-02-15T22:53:30.970Z,98877.47
2023-02-15T22:56:16.719Z,98878.75
2023-02-15T22:59:03.627Z,98880.22
2023-02-15T23:01:53.653Z,98882.06
2023-02-15T23:04:41.949Z,98880.44
2023-02-15T23:07:26.610Z,98868.19
2023-02-15T23:10:25.058Z,98872.69
2023-02-15T23:13:26.651Z,98879.66
2023-02-15T23:16:21.067Z,98879.28
2023-02-15T23:19:03.771Z,98884.19
2023-02-15T23:21:46.034Z,98886.47
2023-02-15T23:24:36.637Z,98880.97
2023-02-15T23:27:45.487Z,98874.81
2023-02-15T23:30:28.699Z,98879.53
2023-02-15T23:33:19.930Z,98881.44
2023-02-15T23:36:02.646Z,98886.59
2023-02-15T23:38:44.855Z,98888.81
2023-02-15T23:41:38.637Z,98896.66
2023-02-15T23:44:21.260Z,98901.81
2023-02-15T23:47:09.707Z,98904.06
2023-02-15T23:49:57.923Z,98888.94
2023-02-15T23:52:39.644Z,98901.44
2023-02-15T23:55:28.961Z,98901.44
2023-02-15T23:58:19.681Z,98907.59
